Time;durP1;ratioP1;P1;durP2;ratioP2;P2;SDS_P1;SDS_P2;PMS_P1;PMS_P2;Temp;Humidity;BMP_temperature;BMP_pressure;BME280_temperature;BME280_humidity;BME280_pressure;Samples;Min_cycle;Max_cycle;Signal;HPM_P1;HPM_P2
2022/03/17 00:00:08;;;;;;;95.63;44.63;;;;;;;6.56;100.00;100017.34;5078019;28;20183;-86
2022/03/17 00:02:35;;;;;;;85.17;42.90;;;;;;;5.72;100.00;99890.78;5084741;28;20177;-87
2022/03/17 00:05:02;;;;;;;85.83;41.70;;;;;;;6.01;100.00;99938.09;5043521;28;20432;-87
2022/03/17 00:07:28;;;;;;;87.50;42.90;;;;;;;6.29;100.00;99988.66;5054084;28;20813;-88
2022/03/17 00:09:54;;;;;;;86.53;42.63;;;;;;;3.42;100.00;99532.28;5062432;28;20423;-87
2022/03/17 00:12:19;;;;;;;75.53;38.97;;;;;;;4.60;100.00;99682.03;5058014;28;20221;-87
2022/03/17 00:14:45;;;;;;;79.83;40.20;;;;;;;4.01;100.00;99599.22;5058293;28;20188;-87
2022/03/17 00:17:11;;;;;;;75.50;38.30;;;;;;;5.10;100.00;99811.06;5056906;28;20209;-87
2022/03/17 00:19:37;;;;;;;79.17;38.43;;;;;;;4.82;100.00;99737.09;5057211;28;20180;-87
2022/03/17 00:22:06;;;;;;;75.53;37.70;;;;;;;6.57;100.00;100041.69;5040473;28;20420;-87
2022/03/17 00:24:32;;;;;;;67.87;35.33;;;;;;;3.52;100.00;99559.72;5056718;28;20234;-87
2022/03/17 00:26:58;;;;;;;70.40;35.87;;;;;;;6.44;100.00;100085.25;5077797;28;20391;-87
2022/03/17 00:29:23;;;;;;;70.27;36.47;;;;;;;4.80;100.00;99791.28;5074352;28;20623;-88
2022/03/17 00:31:48;;;;;;;67.97;35.57;;;;;;;4.84;100.00;99858.44;5076924;28;20242;-87
2022/03/17 00:34:14;;;;;;;74.40;36.70;;;;;;;3.40;100.00;99559.72;5043312;28;20253;-87
2022/03/17 00:36:39;;;;;;;71.77;37.17;;;;;;;5.50;100.00;99942.75;5042217;28;20192;-87
2022/03/17 00:39:07;;;;;;;67.47;35.53;;;;;;;4.14;100.00;99727.09;5063867;28;20243;-88
2022/03/17 00:41:33;;;;;;;62.53;34.53;;;;;;;6.01;100.00;100082.97;5059846;28;20196;-88
2022/03/17 00:43:58;;;;;;;67.00;34.97;;;;;;;3.41;100.00;99611.47;5048028;28;20943;-88
2022/03/17 00:46:24;;;;;;;63.87;33.53;;;;;;;1.97;100.00;99357.28;5072188;28;20184;-88
2022/03/17 00:48:49;;;;;;;58.50;32.10;;;;;;;2.96;100.00;99533.03;5057280;28;20687;-87
2022/03/17 00:51:15;;;;;;;59.20;31.37;;;;;;;3.34;100.00;99593.41;5062655;28;20228;-87
2022/03/17 00:53:41;;;;;;;59.67;31.17;;;;;;;5.25;100.00;99947.66;5070185;28;20173;-88
2022/03/17 00:56:07;;;;;;;54.60;29.30;;;;;;;5.23;100.00;99944.16;5082547;28;20414;-87
2022/03/17 00:58:33;;;;;;;54.27;28.03;;;;;;;4.55;100.00;99813.72;5063169;28;20565;-87
2022/03/17 01:00:58;;;;;;;54.47;28.23;;;;;;;5.46;100.00;100020.28;5037760;28;20479;-88
2022/03/17 01:03:23;;;;;;;58.33;29.37;;;;;;;4.69;100.00;99847.31;5072957;28;20322;-88
2022/03/17 01:05:49;;;;;;;56.17;29.17;;;;;;;3.24;100.00;99591.84;5070011;28;20660;-87
2022/03/17 01:08:14;;;;;;;56.27;29.63;;;;;;;3.08;100.00;99578.09;5039959;28;20188;-86
2022/03/17 01:10:42;;;;;;;57.30;30.30;;;;;;;5.34;100.00;100002.69;5057358;28;20194;-88
2022/03/17 01:13:08;;;;;;;54.77;29.43;;;;;;;5.34;100.00;99985.97;5053678;28;20181;-87
2022/03/17 01:15:33;;;;;;;58.50;30.30;;;;;;;4.65;100.00;99870.41;5056907;28;20496;-87
2022/03/17 01:17:59;;;;;;;56.30;29.63;;;;;;;5.29;100.00;99982.25;5073980;28;20346;-87
2022/03/17 01:20:24;;;;;;;57.10;30.80;;;;;;;3.96;100.00;99740.75;5073755;28;20602;-88
2022/03/17 01:22:50;;;;;;;58.63;32.03;;;;;;;5.33;100.00;99983.34;5074268;28;20169;-88
2022/03/17 01:25:15;;;;;;;59.63;32.03;;;;;;;3.68;100.00;99686.91;5074000;28;20164;-88
2022/03/17 01:27:42;;;;;;;59.63;32.07;;;;;;;5.99;100.00;100129.75;5056563;28;20168;-87
2022/03/17 01:30:09;;;;;;;66.17;33.63;;;;;;;2.77;100.00;99595.75;5057004;28;20196;-87
2022/03/17 01:32:35;;;;;;;70.13;35.63;;;;;;;4.16;100.00;99856.72;5074650;28;20454;-88
2022/03/17 01:35:00;;;;;;;70.37;36.50;;;;;;;5.10;100.00;99984.19;5055837;28;20422;-87
2022/03/17 01:37:27;;;;;;;72.40;36.33;;;;;;;5.77;100.00;100109.66;5082456;28;20172;-87
2022/03/17 01:39:53;;;;;;;75.37;37.13;;;;;;;4.12;100.00;99852.22;5094634;28;20159;-86
2022/03/17 01:42:19;;;;;;;74.27;37.50;;;;;;;5.05;100.00;99979.59;5059914;28;20422;-87
2022/03/17 01:44:44;;;;;;;72.00;37.00;;;;;;;3.45;100.00;99748.59;5081181;28;20453;-86
2022/03/17 01:47:28;;;;;;;75.27;38.53;;;;;;;2.72;100.00;99601.16;5074689;28;20172;-87
2022/03/17 01:49:55;;;;;;;76.03;37.67;;;;;;;4.36;100.00;99878.28;5073907;28;20252;-88
2022/03/17 01:52:20;;;;;;;77.60;37.63;;;;;;;5.77;100.00;100104.63;5073024;28;20512;-87
2022/03/17 01:54:46;;;;;;;73.60;37.20;;;;;;;5.03;100.00;99992.00;5073964;28;20850;-87
2022/03/17 01:57:12;;;;;;;81.07;37.50;;;;;;;4.40;100.00;99901.91;5081297;28;20165;-86
2022/03/17 01:59:39;;;;;;;79.53;38.50;;;;;;;5.44;100.00;100077.91;5074667;28;20566;-87
2022/03/17 02:02:07;;;;;;;82.77;40.30;;;;;;;5.86;100.00;100151.44;5054501;28;20480;-87
2022/03/17 02:04:35;;;;;;;83.27;39.43;;;;;;;4.69;100.00;99910.88;5062557;28;20923;-88
2022/03/17 02:07:01;;;;;;;82.00;39.93;;;;;;;5.28;100.00;100003.09;5057363;28;20495;-88
2022/03/17 02:09:26;;;;;;;84.10;40.23;;;;;;;6.12;100.00;100145.81;5074665;28;20885;-88
2022/03/17 02:14:51;;;;;;;77.93;37.37;;;;;;;6.33;100.00;100123.84;5074326;28;20237;-88
2022/03/17 02:17:18;;;;;;;77.77;38.57;;;;;;;3.27;100.00;99611.22;5075534;28;20414;-88
2022/03/17 02:19:44;;;;;;;80.83;39.73;;;;;;;4.20;100.00;99814.38;5073899;28;20411;-87
2022/03/17 02:22:13;;;;;;;79.37;39.10;;;;;;;5.56;100.00;100012.66;5077004;28;20398;-88
2022/03/17 02:27:33;;;;;;;82.47;39.87;;;;;;;4.80;100.00;99890.72;5078309;28;20478;-88
2022/03/17 02:29:59;;;;;;;84.03;40.27;;;;;;;6.18;100.00;100158.81;5059833;28;20425;-89
2022/03/17 02:32:25;;;;;;;85.13;39.60;;;;;;;4.76;100.00;99884.59;5058686;28;20470;-89
2022/03/17 02:34:51;;;;;;;81.53;39.87;;;;;;;2.33;100.00;99479.91;5040796;28;20264;-87
2022/03/17 02:37:16;;;;;;;82.13;39.93;;;;;;;2.52;100.00;99559.66;5056136;28;20502;-88
2022/03/17 02:39:42;;;;;;;76.10;38.60;;;;;;;4.06;100.00;99778.28;5055544;28;20173;-88
2022/03/17 02:42:10;;;;;;;76.07;38.23;;;;;;;4.91;100.00;99928.41;5037397;28;20169;-88
2022/03/17 02:44:36;;;;;;;71.13;35.33;;;;;;;4.78;100.00;99924.09;5055408;28;20165;-88
2022/03/17 02:47:03;;;;;;;72.37;36.43;;;;;;;4.96;100.00;99942.16;5036781;28;20514;-88
2022/03/17 02:49:28;;;;;;;73.13;36.43;;;;;;;3.14;100.00;99636.06;5037556;28;20498;-88
2022/03/17 02:51:54;;;;;;;71.47;35.93;;;;;;;4.59;100.00;99915.94;5038264;28;20554;-88
2022/03/17 02:54:19;;;;;;;68.20;35.07;;;;;;;3.68;100.00;99769.50;5056926;28;20166;-88
2022/03/17 02:56:45;;;;;;;69.93;35.57;;;;;;;6.09;100.00;100193.34;5054027;28;20609;-88
2022/03/17 02:59:10;;;;;;;72.63;35.40;;;;;;;3.51;100.00;99764.09;5054746;28;20230;-88
2022/03/17 03:01:36;;;;;;;69.83;35.47;;;;;;;3.88;100.00;99792.78;5054946;28;20648;-88
2022/03/17 03:04:01;;;;;;;64.47;33.93;;;;;;;4.27;100.00;99822.44;5036303;28;20172;-88
2022/03/17 03:06:26;;;;;;;69.43;33.73;;;;;;;3.56;100.00;99721.88;5054292;28;20197;-88
2022/03/17 03:08:52;;;;;;;62.33;32.90;;;;;;;4.10;100.00;99820.31;5036916;28;20177;-88
2022/03/17 03:11:39;;;;;;;65.00;33.40;;;;;;;3.84;100.00;99758.25;5055093;28;20208;-88
2022/03/17 03:14:07;;;;;;;59.13;31.33;;;;;;;4.51;100.00;99891.94;5036728;28;20184;-88
2022/03/17 03:16:35;;;;;;;65.83;33.13;;;;;;;5.45;100.00;100042.00;5068367;28;20934;-88
2022/03/17 03:19:00;;;;;;;65.30;33.60;;;;;;;4.31;100.00;99858.66;5075124;28;20407;-88
2022/03/17 03:21:26;;;;;;;62.60;31.93;;;;;;;4.85;100.00;99939.59;5074524;28;20418;-87
2022/03/17 03:23:51;;;;;;;63.67;33.90;;;;;;;3.86;100.00;99769.25;5077891;28;20198;-88
2022/03/17 03:26:17;;;;;;;63.23;32.17;;;;;;;4.86;100.00;99897.09;5057602;28;20187;-88
2022/03/17 03:28:42;;;;;;;60.77;31.87;;;;;;;3.94;100.00;99747.28;5056433;28;20175;-88
2022/03/17 03:31:08;;;;;;;56.50;30.80;;;;;;;4.85;100.00;99896.97;5076661;28;20184;-88
2022/03/17 03:33:33;;;;;;;62.67;31.17;;;;;;;4.36;100.00;99824.78;5074328;28;20165;-88
2022/03/17 03:38:43;;;;;;;63.00;31.17;;;;;;;5.23;100.00;99994.38;5074271;28;20230;-88
2022/03/17 03:41:08;;;;;;;58.33;30.87;;;;;;;5.18;100.00;99979.72;5074466;28;20411;-88
2022/03/17 03:43:33;;;;;;;59.00;32.77;;;;;;;6.12;100.00;100147.47;5074694;28;20165;-88
2022/03/17 03:45:59;;;;;;;57.47;30.47;;;;;;;6.15;100.00;100161.13;5056897;28;20171;-88
2022/03/17 03:48:24;;;;;;;57.80;31.13;;;;;;;4.23;100.00;99835.50;5065138;28;20181;-88
2022/03/17 03:50:50;;;;;;;61.27;32.37;;;;;;;5.42;100.00;100059.34;5053503;28;20173;-88
2022/03/17 03:53:15;;;;;;;61.83;32.73;;;;;;;5.54;100.00;100041.81;5049681;28;20288;-87
2022/03/17 03:55:41;;;;;;;54.83;30.40;;;;;;;6.22;100.00;100155.78;5083288;28;20173;-88
2022/03/17 03:58:06;;;;;;;59.10;31.13;;;;;;;6.25;100.00;100166.06;5081040;28;20165;-88
2022/03/17 04:00:33;;;;;;;58.27;30.40;;;;;;;6.43;100.00;100184.97;5073263;28;20224;-88
2022/03/17 04:02:59;;;;;;;56.00;30.53;;;;;;;6.06;100.00;100140.34;5036687;28;20176;-88
2022/03/17 04:05:36;;;;;;;61.57;32.90;;;;;;;4.29;100.00;99820.03;5053084;28;20473;-88
2022/03/17 04:08:02;;;;;;;60.80;31.60;;;;;;;6.95;100.00;100279.31;5054224;28;20432;-87
2022/03/17 04:10:28;;;;;;;57.73;30.83;;;;;;;4.50;100.00;99860.13;5054700;28;20923;-88
2022/03/17 04:12:54;;;;;;;59.30;31.00;;;;;;;6.85;100.00;100257.63;5036152;28;20514;-88
2022/03/17 04:15:20;;;;;;;59.50;31.07;;;;;;;4.22;100.00;99822.88;5054286;28;20173;-88
2022/03/17 04:17:46;;;;;;;58.33;30.50;;;;;;;6.92;100.00;100259.81;5056634;28;20469;-88
2022/03/17 04:20:12;;;;;;;53.77;29.40;;;;;;;3.14;100.00;99643.56;5085962;28;20192;-86
2022/03/17 04:22:37;;;;;;;54.17;28.87;;;;;;;6.17;100.00;100146.16;5088552;28;20411;-88
2022/03/17 04:25:04;;;;;;;56.33;30.00;;;;;;;5.16;100.00;99958.66;5081769;28;20164;-88
2022/03/17 04:27:29;;;;;;;55.93;29.27;;;;;;;4.32;100.00;99802.72;5075436;28;20169;-88
2022/03/17 04:29:54;;;;;;;59.03;30.43;;;;;;;5.30;100.00;99994.03;5056482;28;20438;-88
2022/03/17 04:32:20;;;;;;;51.50;28.77;;;;;;;5.65;100.00;100043.47;5073919;28;20262;-88
2022/03/17 04:34:46;;;;;;;55.37;29.17;;;;;;;6.30;100.00;100159.72;5055571;28;20193;-87
2022/03/17 04:37:11;;;;;;;53.40;29.43;;;;;;;7.13;100.00;100301.63;5074563;28;20165;-87
2022/03/17 04:39:37;;;;;;;103.77;50.00;;;;;;;7.10;100.00;100296.38;5057000;28;20309;-87
2022/03/17 04:42:02;;;;;;;87.17;43.47;;;;;;;4.98;100.00;99958.19;5073367;28;20255;-88
2022/03/17 04:44:28;;;;;;;104.43;49.27;;;;;;;4.27;100.00;99826.59;5072186;28;20237;-88
2022/03/17 04:46:54;;;;;;;59.27;31.53;;;;;;;4.41;100.00;99848.53;5055359;28;20689;-88
2022/03/17 04:49:19;;;;;;;55.37;28.37;;;;;;;7.02;100.00;100321.75;5054938;28;20193;-87
2022/03/17 04:51:44;;;;;;;49.67;27.63;;;;;;;5.58;100.00;100072.25;5073330;28;20683;-88
2022/03/17 04:54:10;;;;;;;52.73;28.83;;;;;;;5.52;100.00;100098.56;5072748;28;20176;-88
2022/03/17 04:56:35;;;;;;;49.27;27.87;;;;;;;5.15;100.00;100017.13;5073217;28;20633;-88
2022/03/17 04:59:01;;;;;;;62.17;33.00;;;;;;;3.69;100.00;99748.69;5054916;28;20177;-88
2022/03/17 05:01:26;;;;;;;89.27;43.27;;;;;;;3.16;100.00;99684.59;5070193;28;20252;-88
2022/03/17 05:03:52;;;;;;;102.73;48.57;;;;;;;4.54;100.00;99916.38;5053591;28;20260;-87
2022/03/17 05:06:17;;;;;;;95.43;45.70;;;;;;;4.95;100.00;100008.13;5056134;28;20176;-87
2022/03/17 05:08:43;;;;;;;120.33;54.80;;;;;;;3.90;100.00;99831.31;5058702;28;20165;-88
2022/03/17 05:11:10;;;;;;;103.87;48.67;;;;;;;6.54;100.00;100332.50;5035145;28;20181;-87
2022/03/17 05:13:37;;;;;;;92.70;44.30;;;;;;;5.57;100.00;100178.53;5052066;28;20449;-88
2022/03/17 05:16:04;;;;;;;84.43;40.83;;;;;;;6.10;100.00;100269.63;5052746;28;20928;-88
2022/03/17 05:18:30;;;;;;;88.00;43.67;;;;;;;2.57;100.00;99722.41;5052650;28;20942;-88
2022/03/17 05:20:55;;;;;;;80.77;40.33;;;;;;;4.05;100.00;100000.31;5052796;28;20416;-87
2022/03/17 05:23:22;;;;;;;87.80;42.87;;;;;;;2.83;100.00;99753.69;5042421;28;20248;-88
2022/03/17 05:25:49;;;;;;;90.53;43.37;;;;;;;3.84;100.00;99926.03;5076783;28;20180;-87
2022/03/17 05:28:15;;;;;;;121.77;53.57;;;;;;;4.31;100.00;100021.53;5070879;28;20434;-88
2022/03/17 05:30:42;;;;;;;96.40;46.70;;;;;;;5.99;100.00;100288.06;5054487;28;20961;-88
2022/03/17 05:33:10;;;;;;;93.07;45.50;;;;;;;5.97;100.00;100274.47;5081090;28;20203;-88
2022/03/17 05:35:37;;;;;;;93.07;45.97;;;;;;;5.55;100.00;100225.22;5054807;28;20937;-87
2022/03/17 05:38:02;;;;;;;91.27;44.70;;;;;;;4.32;100.00;100000.72;5054161;28;20874;-87
2022/03/17 05:40:28;;;;;;;80.67;40.93;;;;;;;6.40;100.00;100362.44;5070925;28;20538;-87
2022/03/17 05:42:57;;;;;;;84.73;41.80;;;;;;;5.54;100.00;100215.06;5072868;28;20210;-88
2022/03/17 05:45:25;;;;;;;81.23;40.97;;;;;;;6.59;100.00;100368.09;5060428;28;20177;-87
2022/03/17 05:47:53;;;;;;;82.83;41.30;;;;;;;6.68;100.00;100372.91;5071401;28;20942;-88
2022/03/17 05:50:22;;;;;;;80.80;41.30;;;;;;;6.66;100.00;100380.34;5073350;28;20496;-88
2022/03/17 05:52:48;;;;;;;78.80;42.10;;;;;;;5.18;100.00;100118.63;5074272;28;20462;-87
2022/03/17 05:55:16;;;;;;;84.07;44.87;;;;;;;6.46;100.00;100345.28;5072261;28;20411;-86
2022/03/17 05:57:43;;;;;;;80.30;40.93;;;;;;;6.15;100.00;100289.34;5072533;28;20533;-87
2022/03/17 06:00:12;;;;;;;75.63;40.73;;;;;;;5.74;100.00;100242.59;5071681;28;20395;-87
2022/03/17 06:02:38;;;;;;;77.23;41.50;;;;;;;4.22;100.00;99973.19;5072180;28;20411;-88
2022/03/17 06:05:05;;;;;;;81.20;42.10;;;;;;;4.69;100.00;100048.81;5053636;28;20426;-89
2022/03/17 06:07:38;;;;;;;91.13;47.37;;;;;;;6.58;100.00;100375.50;5068248;28;20427;-89
2022/03/17 06:10:05;;;;;;;89.50;45.87;;;;;;;5.28;100.00;100135.25;5054024;28;20489;-88
2022/03/17 06:12:31;;;;;;;94.23;45.90;;;;;;;4.23;100.00;99972.47;5061820;28;20969;-88
2022/03/17 06:14:57;;;;;;;100.63;50.53;;;;;;;3.14;100.00;99743.59;5061753;28;20438;-87
2022/03/17 06:17:23;;;;;;;101.10;49.53;;;;;;;4.62;100.00;100006.44;5041431;28;20188;-87
2022/03/17 06:19:48;;;;;;;110.73;52.80;;;;;;;6.09;100.00;100280.44;5053448;28;20396;-88
2022/03/17 06:22:14;;;;;;;119.10;55.07;;;;;;;5.44;100.00;100155.72;5057161;28;20173;-87
2022/03/17 06:24:39;;;;;;;94.30;46.43;;;;;;;6.25;100.00;100323.56;5049587;28;20297;-88
2022/03/17 06:27:05;;;;;;;84.47;44.60;;;;;;;4.67;100.00;100026.84;5053286;28;20161;-88
2022/03/17 06:29:30;;;;;;;72.43;38.70;;;;;;;3.96;100.00;99921.94;5068050;28;20216;-88
2022/03/17 06:31:56;;;;;;;72.43;40.10;;;;;;;7.19;100.00;100457.31;5052743;28;20212;-88
2022/03/17 06:34:22;;;;;;;75.87;42.37;;;;;;;7.01;100.00;100454.31;5068271;28;20698;-88
2022/03/17 06:36:47;;;;;;;96.13;50.30;;;;;;;4.56;100.00;100022.69;5052272;28;20408;-87
2022/03/17 06:39:13;;;;;;;92.07;46.10;;;;;;;7.31;100.00;100485.91;5073048;28;20279;-88
2022/03/17 06:41:38;;;;;;;103.40;54.63;;;;;;;5.25;100.00;100130.00;5052889;28;20184;-88
2022/03/17 06:44:04;;;;;;;102.40;53.40;;;;;;;3.43;100.00;99825.16;5064581;28;20637;-88
2022/03/17 06:46:30;;;;;;;101.57;52.77;;;;;;;6.91;100.00;100444.31;5053143;28;20161;-87
2022/03/17 06:48:56;;;;;;;98.87;51.10;;;;;;;4.38;100.00;100008.72;5057778;28;20181;-88
2022/03/17 06:51:21;;;;;;;104.27;52.77;;;;;;;3.88;100.00;99897.94;5072591;28;20459;-88
2022/03/17 06:53:46;;;;;;;112.40;56.70;;;;;;;7.08;100.00;100498.44;5061591;28;20181;-86
2022/03/17 06:56:12;;;;;;;114.90;57.07;;;;;;;4.85;100.00;100136.13;5075277;28;20266;-86
2022/03/17 06:58:39;;;;;;;100.47;49.77;;;;;;;5.70;100.00;100275.75;5069931;28;20234;-87
2022/03/17 07:01:04;;;;;;;96.63;46.93;;;;;;;5.68;100.00;100262.22;5067644;28;20229;-87
2022/03/17 07:03:30;;;;;;;89.83;43.63;;;;;;;4.04;100.00;99971.00;5087954;28;20414;-87
2022/03/17 07:05:55;;;;;;;78.63;42.33;;;;;;;3.30;100.00;99886.63;5074737;28;20172;-89
2022/03/17 07:08:21;;;;;;;87.10;43.87;;;;;;;4.67;100.00;100079.50;5078243;28;20190;-90
2022/03/17 07:10:46;;;;;;;84.77;44.80;;;;;;;7.11;100.00;100522.19;5083850;28;20165;-91
2022/03/17 07:13:13;;;;;;;82.73;42.63;;;;;;;4.65;100.00;100106.09;5071039;28;20195;-91
2022/03/17 07:15:39;;;;;;;82.50;41.70;;;;;;;3.38;100.00;99900.63;5059636;28;20169;-89
2022/03/17 07:18:04;;;;;;;75.83;40.27;;;;;;;6.30;100.00;100360.88;5082661;28;20425;-90
2022/03/17 07:20:30;;;;;;;77.60;40.13;;;;;;;6.47;100.00;100373.06;5062820;28;20621;-90
2022/03/17 07:22:55;;;;;;;68.97;37.53;;;;;;;7.26;100.00;100519.06;5068998;28;20171;-91
2022/03/17 07:25:23;;;;;;;66.13;34.80;;;;;;;5.99;98.90;100280.53;5049863;28;20259;-89
2022/03/17 07:27:49;;;;;;;63.10;32.73;;;;;;;7.56;95.66;100547.41;5076238;28;20619;-88
2022/03/17 07:30:19;;;;;;;55.37;30.23;;;;;;;7.21;93.61;100465.84;5076105;28;20430;-88
2022/03/17 07:32:49;;;;;;;55.17;29.97;;;;;;;5.51;91.38;100227.38;5077105;28;20220;-88
2022/03/17 07:35:15;;;;;;;56.83;30.30;;;;;;;6.22;91.63;100341.81;5057298;28;20424;-90
2022/03/17 07:37:41;;;;;;;77.03;35.33;;;;;;;5.41;90.67;100182.25;5057636;28;20408;-90
2022/03/17 07:40:07;;;;;;;74.07;33.97;;;;;;;6.23;90.24;100310.91;5060255;28;20165;-89
2022/03/17 07:42:32;;;;;;;59.80;31.77;;;;;;;6.79;88.79;100415.72;5044110;28;20440;-88
2022/03/17 07:44:58;;;;;;;56.80;28.70;;;;;;;7.71;86.18;100555.22;5068182;28;20415;-88
2022/03/17 07:47:23;;;;;;;56.90;28.13;;;;;;;7.67;85.22;100533.06;5059065;28;20189;-88
2022/03/17 07:49:50;;;;;;;52.83;27.80;;;;;;;6.37;83.37;100286.78;5079278;28;20191;-89
2022/03/17 07:52:15;;;;;;;53.80;28.43;;;;;;;8.04;81.98;100570.28;5058016;28;20284;-89
2022/03/17 07:54:41;;;;;;;54.23;29.37;;;;;;;5.32;81.43;100124.69;5075710;28;20443;-88
2022/03/17 07:57:07;;;;;;;57.33;29.77;;;;;;;7.03;81.60;100336.13;5058369;28;20165;-89
2022/03/17 07:59:33;;;;;;;54.03;27.50;;;;;;;7.16;78.18;100361.41;5076089;28;20181;-90
2022/03/17 08:01:58;;;;;;;54.53;29.67;;;;;;;6.80;78.29;100246.34;5057794;28;20619;-90
2022/03/17 08:04:24;;;;;;;52.97;27.97;;;;;;;8.67;77.22;100603.41;5075463;28;20230;-88
2022/03/17 08:06:53;;;;;;;54.50;28.43;;;;;;;6.27;77.45;100151.94;5057323;28;20215;-90
2022/03/17 08:09:22;;;;;;;55.80;28.03;;;;;;;6.48;76.63;100223.06;5058019;28;20187;-89
2022/03/17 08:11:48;;;;;;;51.97;26.20;;;;;;;7.50;76.18;100476.41;5051187;28;20212;-89
2022/03/17 08:14:15;;;;;;;52.73;29.53;;;;;;;5.61;77.68;100146.94;5059702;28;20441;-89
2022/03/17 08:16:41;;;;;;;56.07;28.27;;;;;;;7.31;76.49;100407.81;5079619;28;20403;-89
2022/03/17 08:19:08;;;;;;;51.97;25.27;;;;;;;6.52;74.70;100318.94;5058349;28;20291;-90
2022/03/17 08:21:33;;;;;;;54.10;27.10;;;;;;;7.91;76.50;100607.94;5074583;28;20291;-90
2022/03/17 08:23:59;;;;;;;53.20;27.93;;;;;;;6.68;77.04;100352.78;5047457;28;20886;-89
2022/03/17 08:26:24;;;;;;;56.13;28.70;;;;;;;7.33;76.84;100450.78;5064755;28;20177;-88
2022/03/17 08:28:50;;;;;;;56.00;27.60;;;;;;;8.02;77.29;100598.69;5087864;28;20632;-89
2022/03/17 08:31:15;;;;;;;56.13;29.00;;;;;;;6.95;77.23;100412.72;5076468;28;20164;-88
2022/03/17 08:33:40;;;;;;;53.97;27.83;;;;;;;7.07;76.30;100421.16;5077883;28;20187;-89
2022/03/17 08:36:06;;;;;;;54.70;28.63;;;;;;;8.08;76.80;100612.59;5058908;28;20275;-91
2022/03/17 08:38:31;;;;;;;58.70;28.30;;;;;;;4.74;77.26;100064.19;5054608;28;20169;-90
2022/03/17 08:40:57;;;;;;;56.60;29.47;;;;;;;5.69;76.92;100120.78;5056008;28;20172;-89
2022/03/17 08:43:23;;;;;;;58.53;29.73;;;;;;;8.53;75.83;100597.38;5054947;28;20836;-90
2022/03/17 08:51:16;;;;;;;56.83;29.80;;;;;;;8.39;72.80;100498.75;5068374;28;20246;-89
2022/03/17 08:53:42;;;;;;;58.77;29.83;;;;;;;8.25;72.92;100490.19;5067665;28;20184;-90
2022/03/17 08:56:07;;;;;;;55.60;29.97;;;;;;;8.46;70.41;100495.91;5075196;28;20165;-89
2022/03/17 08:58:37;;;;;;;55.87;29.37;;;;;;;9.14;69.11;100604.16;5055155;28;20181;-89
2022/03/17 09:01:03;;;;;;;54.87;28.70;;;;;;;7.46;69.54;100358.56;5062878;28;20688;-89
2022/03/17 09:03:30;;;;;;;53.33;27.70;;;;;;;8.42;67.79;100474.63;5075027;28;20188;-90
2022/03/17 09:05:58;;;;;;;56.00;29.63;;;;;;;7.41;68.36;100289.34;5051595;28;20184;-90
2022/03/17 09:08:24;;;;;;;56.60;31.23;;;;;;;9.51;67.81;100618.50;5076246;28;20184;-89
2022/03/17 09:10:50;;;;;;;58.90;30.83;;;;;;;9.55;66.83;100601.91;5072301;28;20210;-91
2022/03/17 09:13:15;;;;;;;62.73;31.53;;;;;;;8.44;68.26;100459.56;5074039;28;20251;-90
2022/03/17 09:15:42;;;;;;;56.97;30.57;;;;;;;8.00;68.54;100422.03;5062474;28;20181;-91
2022/03/17 09:18:09;;;;;;;82.43;39.87;;;;;;;8.48;68.76;100492.72;5057973;28;20200;-90
2022/03/17 09:20:44;;;;;;;61.30;31.90;;;;;;;7.72;68.48;100414.19;5057199;28;20185;-90
2022/03/17 09:23:10;;;;;;;58.00;30.80;;;;;;;9.33;68.39;100613.09;5097270;28;20179;-89
2022/03/17 09:25:35;;;;;;;65.97;32.97;;;;;;;7.56;67.86;100304.63;5072786;28;20293;-91
2022/03/17 09:28:02;;;;;;;66.60;31.40;;;;;;;7.79;67.71;100402.91;5077299;28;20682;-90
2022/03/17 09:30:27;;;;;;;59.80;30.03;;;;;;;5.69;68.56;100070.53;5075229;28;20185;-89
2022/03/17 09:32:59;;;;;;;77.40;36.33;;;;;;;7.69;70.14;100363.56;5067048;28;20249;-94
2022/03/17 09:35:25;;;;;;;55.27;28.13;;;;;;;8.77;67.32;100585.59;5057894;28;20196;-92
2022/03/17 09:37:54;;;;;;;66.10;32.43;;;;;;;7.58;68.01;100397.19;5065492;28;20263;-92
2022/03/17 09:40:19;;;;;;;58.33;30.33;;;;;;;5.28;67.77;99950.38;5068801;28;20196;-93
2022/03/17 09:42:45;;;;;;;60.63;29.90;;;;;;;7.51;68.93;100339.59;5071374;28;20180;-92
2022/03/17 09:45:12;;;;;;;65.17;31.60;;;;;;;7.67;67.06;100359.19;5081125;28;20176;-92
2022/03/17 09:47:39;;;;;;;59.20;30.30;;;;;;;6.82;68.28;100259.03;5078864;28;20184;-92
2022/03/17 09:50:10;;;;;;;62.40;30.17;;;;;;;9.05;68.57;100664.16;5059217;28;20172;-91
2022/03/17 09:52:37;;;;;;;60.13;29.73;;;;;;;6.88;66.31;100237.72;5065031;28;20245;-91
2022/03/17 09:55:05;;;;;;;60.33;29.80;;;;;;;7.00;67.77;100336.75;5058077;28;20180;-91
2022/03/17 09:57:31;;;;;;;63.73;30.97;;;;;;;7.04;68.99;100363.03;5050979;28;20200;-92
2022/03/17 09:59:58;;;;;;;58.47;29.00;;;;;;;6.97;69.02;100370.91;5059360;28;20189;-91
2022/03/17 10:02:27;;;;;;;60.87;30.23;;;;;;;8.73;69.83;100662.78;5075271;28;20281;-92
2022/03/17 10:04:54;;;;;;;56.57;26.83;;;;;;;8.53;69.62;100642.81;5058264;28;20176;-92
2022/03/17 10:07:23;;;;;;;62.17;29.80;;;;;;;7.50;71.51;100506.63;5059961;28;20212;-92
2022/03/17 10:09:50;;;;;;;65.83;30.43;;;;;;;5.06;71.29;100052.44;5059858;28;20185;-93
2022/03/17 10:12:20;;;;;;;62.77;31.07;;;;;;;7.43;71.52;100501.03;5065138;28;20964;-91
2022/03/17 10:14:52;;;;;;;61.60;30.17;;;;;;;6.33;71.56;100250.47;5055707;28;20176;-90
2022/03/17 10:17:33;;;;;;;61.80;30.30;;;;;;;6.64;70.65;100242.63;5058063;28;20268;-91
2022/03/17 10:20:11;;;;;;;57.47;29.83;;;;;;;9.13;68.74;100643.69;5052241;28;20196;-91
2022/03/17 10:22:44;;;;;;;62.90;28.43;;;;;;;8.94;68.46;100650.78;5054252;28;20282;-91
2022/03/17 10:25:22;;;;;;;58.97;30.07;;;;;;;5.64;69.26;100082.75;5044757;28;20236;-90
2022/03/17 10:27:49;;;;;;;59.93;30.83;;;;;;;7.37;68.73;100370.50;5058793;28;20176;-92
2022/03/17 10:30:24;;;;;;;55.43;28.57;;;;;;;9.26;68.32;100685.84;5048428;28;20173;-90
2022/03/17 10:33:14;;;;;;;54.60;28.20;;;;;;;8.27;67.25;100514.78;5070521;28;20215;-91
2022/03/17 10:35:46;;;;;;;55.47;28.27;;;;;;;5.82;67.13;100098.31;5075634;28;20180;-91
2022/03/17 10:38:22;;;;;;;57.83;28.57;;;;;;;8.49;65.09;100509.59;5052254;28;20669;-92
2022/03/17 10:41:20;;;;;;;54.60;28.10;;;;;;;6.65;66.84;100226.78;5052153;28;20217;-90
2022/03/17 10:43:46;;;;;;;49.30;25.07;;;;;;;6.62;66.06;100261.78;5001210;28;20262;-91
2022/03/17 10:46:18;;;;;;;55.50;24.23;;;;;;;7.95;68.84;100561.16;5002907;28;20214;-91
2022/03/17 10:48:54;;;;;;;67.33;32.57;;;;;;;7.03;70.47;100376.41;5004153;28;20178;-93
2022/03/17 10:51:38;;;;;;;61.00;30.47;;;;;;;8.73;69.47;100669.47;5012698;28;20212;-92
2022/03/17 10:54:05;;;;;;;56.97;29.20;;;;;;;8.63;69.80;100662.88;5017052;28;20689;-89
2022/03/17 10:56:31;;;;;;;55.33;26.33;;;;;;;6.62;68.58;100297.84;5001080;28;20221;-87
2022/03/17 10:59:09;;;;;;;55.47;28.93;;;;;;;7.19;67.67;100354.06;5020433;28;20187;-90
2022/03/17 11:01:43;;;;;;;52.77;26.70;;;;;;;5.46;66.53;100053.81;5019626;28;20714;-90
2022/03/17 11:04:09;;;;;;;53.57;27.50;;;;;;;7.50;68.53;100404.97;5018545;28;20261;-88
2022/03/17 11:06:35;;;;;;;51.07;26.70;;;;;;;9.06;66.56;100676.03;5002998;28;20202;-89
2022/03/17 11:09:01;;;;;;;49.90;25.67;;;;;;;8.13;66.29;100519.63;5001704;28;20198;-89
2022/03/17 11:11:37;;;;;;;47.40;25.33;;;;;;;9.24;64.18;100652.91;5014983;28;20344;-89
2022/03/17 11:14:06;;;;;;;53.73;28.13;;;;;;;9.41;64.86;100646.47;5000716;28;20197;-87
2022/03/17 11:16:39;;;;;;;48.93;24.27;;;;;;;9.50;62.58;100669.84;4999950;28;20193;-88
2022/03/17 11:19:20;;;;;;;53.10;25.73;;;;;;;5.74;63.08;99993.91;5023350;28;20208;-89
2022/03/17 11:21:49;;;;;;;51.57;26.23;;;;;;;9.50;63.76;100668.16;5049467;28;20181;-89
2022/03/17 11:24:22;;;;;;;50.00;27.10;;;;;;;7.12;62.86;100200.78;5070055;28;20170;-87
2022/03/17 11:26:50;;;;;;;48.13;25.50;;;;;;;8.52;62.66;100463.50;5042496;28;20216;-88